Time;durP1;ratioP1;P1;durP2;ratioP2;P2;SDS_P1;SDS_P2;PMS_P1;PMS_P2;Temp;Humidity;BMP_temperature;BMP_pressure;BME280_temperature;BME280_humidity;BME280_pressure;Samples;Min_cycle;Max_cycle;Signal;HPM_P1;HPM_P2
2022/04/12 00:02:28;;;;;;;8.05;3.03;;;6.00;99.90;;;;;;4875712;29;20064;-81
2022/04/12 00:04:54;;;;;;;9.32;3.22;;;5.90;99.90;;;;;;4859565;29;20099;-81
2022/04/12 00:07:20;;;;;;;9.18;3.85;;;6.80;99.90;;;;;;4860172;29;20079;-81
2022/04/12 00:09:46;;;;;;;7.43;3.30;;;5.90;99.90;;;;;;4860195;29;20486;-81
2022/04/12 00:12:14;;;;;;;8.15;3.05;;;5.90;99.90;;;;;;4874125;29;20084;-81
2022/04/12 00:14:40;;;;;;;5.32;3.15;;;5.80;99.90;;;;;;4875041;29;20390;-81
2022/04/12 00:19:49;;;;;;;6.80;3.33;;;6.30;99.90;;;;;;4875042;29;20113;-81
2022/04/12 00:22:16;;;;;;;8.15;3.92;;;5.70;99.90;;;;;;4875198;29;20582;-81
2022/04/12 00:24:42;;;;;;;8.20;3.45;;;6.10;99.90;;;;;;4874633;29;20128;-81
2022/04/12 00:27:10;;;;;;;8.20;3.78;;;5.60;99.90;;;;;;4875389;29;20061;-81
2022/04/12 00:29:36;;;;;;;7.30;3.50;;;5.60;99.90;;;;;;4890569;29;20053;-81
2022/04/12 00:32:02;;;;;;;9.40;4.07;;;6.10;99.90;;;;;;4889528;29;20056;-81
2022/04/12 00:34:27;;;;;;;8.30;4.28;;;5.60;99.90;;;;;;4859406;29;20482;-81
2022/04/12 00:36:53;;;;;;;8.85;3.90;;;5.60;99.90;;;;;;4875332;29;20053;-81
2022/04/12 00:39:19;;;;;;;8.65;3.85;;;5.50;99.90;;;;;;4874142;29;20063;-81
2022/04/12 00:41:44;;;;;;;7.78;3.72;;;5.50;99.90;;;;;;4875588;29;20245;-81
2022/04/12 00:44:19;;;;;;;8.20;3.95;;;5.50;99.90;;;;;;4857946;29;20045;-82
2022/04/12 00:46:45;;;;;;;10.02;3.92;;;5.50;99.90;;;;;;4858607;29;20417;-82
2022/04/12 00:49:11;;;;;;;7.85;3.90;;;6.20;99.90;;;;;;4877434;29;20053;-82
2022/04/12 00:51:36;;;;;;;9.52;3.97;;;6.20;99.90;;;;;;4863172;29;20429;-82
2022/04/12 00:54:02;;;;;;;8.20;4.20;;;5.50;99.90;;;;;;4860453;29;20501;-82
2022/04/12 00:56:28;;;;;;;10.57;4.00;;;5.50;99.90;;;;;;4862524;29;20044;-82
2022/04/12 00:58:55;;;;;;;8.43;3.78;;;5.50;99.90;;;;;;4861940;29;20052;-82
2022/04/12 01:01:20;;;;;;;11.90;4.43;;;5.50;99.90;;;;;;4861392;29;20048;-81
2022/04/12 01:03:46;;;;;;;9.60;4.55;;;5.40;99.90;;;;;;4862474;29;20052;-82
2022/04/12 01:06:13;;;;;;;7.35;4.25;;;5.80;99.90;;;;;;4876299;29;20508;-82
2022/04/12 01:08:38;;;;;;;13.38;4.60;;;5.40;99.90;;;;;;4878144;29;20071;-82
2022/04/12 01:11:07;;;;;;;9.57;4.30;;;5.40;99.90;;;;;;4877119;29;20369;-82
2022/04/12 01:13:38;;;;;;;15.07;4.78;;;5.40;99.90;;;;;;4892318;29;20068;-82
2022/04/12 01:16:07;;;;;;;8.32;3.70;;;5.40;99.90;;;;;;4860869;29;20047;-82
2022/04/12 01:18:34;;;;;;;10.55;4.75;;;4.40;99.90;;;;;;4893630;29;20170;-83
2022/04/12 01:21:01;;;;;;;10.13;4.85;;;6.30;99.90;;;;;;4876067;29;20044;-82
2022/04/12 01:23:33;;;;;;;12.55;4.38;;;5.40;99.90;;;;;;4877409;29;20044;-82
2022/04/12 01:25:59;;;;;;;8.75;4.57;;;5.50;99.90;;;;;;4861482;29;20056;-82
2022/04/12 01:28:25;;;;;;;9.63;4.15;;;5.30;99.90;;;;;;4892418;29;20044;-82
2022/04/12 01:30:51;;;;;;;10.82;4.80;;;5.30;99.90;;;;;;4861264;29;20055;-82
2022/04/12 01:33:17;;;;;;;10.25;5.00;;;5.40;99.90;;;;;;4861217;29;20051;-82
2022/04/12 01:35:43;;;;;;;10.82;4.65;;;5.30;99.90;;;;;;4875706;29;20056;-82
2022/04/12 01:38:08;;;;;;;10.43;4.65;;;5.20;99.90;;;;;;4842701;29;20205;-82
2022/04/12 01:40:34;;;;;;;13.90;4.88;;;5.20;99.90;;;;;;4843279;29;20610;-82
2022/04/12 01:43:00;;;;;;;8.05;4.75;;;5.20;99.90;;;;;;4841836;29;20060;-83
2022/04/12 01:45:26;;;;;;;10.60;5.15;;;5.20;99.90;;;;;;4857237;29;20117;-82
2022/04/12 01:47:52;;;;;;;10.25;4.63;;;5.20;99.90;;;;;;4858623;29;20052;-82
2022/04/12 01:50:26;;;;;;;10.68;5.15;;;5.10;99.90;;;;;;4872627;29;20057;-82
2022/04/12 01:52:52;;;;;;;11.07;5.40;;;5.10;99.90;;;;;;4858599;29;20137;-82
2022/04/12 01:55:18;;;;;;;9.95;5.38;;;5.10;99.90;;;;;;4841942;29;20126;-82
2022/04/12 01:57:43;;;;;;;11.43;5.32;;;5.60;99.90;;;;;;4842621;29;20045;-82
2022/04/12 02:00:10;;;;;;;11.65;4.78;;;5.10;99.90;;;;;;4856247;29;20059;-82
2022/04/12 02:02:35;;;;;;;11.43;5.18;;;5.10;99.90;;;;;;4857970;29;20045;-82
2022/04/12 02:05:01;;;;;;;12.32;4.85;;;5.10;99.90;;;;;;4858084;29;20493;-82
2022/04/12 02:07:27;;;;;;;13.43;5.43;;;5.10;99.90;;;;;;4857682;29;20067;-82
2022/04/12 02:09:53;;;;;;;10.63;5.63;;;5.10;99.90;;;;;;4857485;29;20053;-82
2022/04/12 02:12:21;;;;;;;10.68;5.57;;;5.00;99.90;;;;;;4857462;29;20064;-82
2022/04/12 02:14:47;;;;;;;9.50;5.05;;;5.10;99.90;;;;;;4842027;29;20136;-82
2022/04/12 02:17:12;;;;;;;9.57;5.65;;;5.00;99.90;;;;;;4841626;29;20519;-82
2022/04/12 02:19:38;;;;;;;12.65;5.68;;;5.00;99.90;;;;;;4873479;29;20142;-82
2022/04/12 02:22:05;;;;;;;10.80;5.95;;;4.90;99.90;;;;;;4842801;29;20052;-82
2022/04/12 02:24:31;;;;;;;10.60;5.70;;;5.00;99.90;;;;;;4841529;29;20525;-82
2022/04/12 02:27:02;;;;;;;15.77;6.32;;;4.40;99.90;;;;;;4857832;29;20056;-82
2022/04/12 02:29:28;;;;;;;11.48;5.55;;;4.80;99.90;;;;;;4875974;29;20150;-82
2022/04/12 02:31:54;;;;;;;13.15;6.47;;;5.80;99.90;;;;;;4876020;29;20416;-82
2022/04/12 02:34:19;;;;;;;9.15;5.55;;;4.70;99.90;;;;;;4860332;29;20052;-82
2022/04/12 02:36:47;;;;;;;11.50;5.40;;;4.70;99.90;;;;;;4891715;29;20052;-81
2022/04/12 02:39:12;;;;;;;11.80;6.05;;;4.70;99.90;;;;;;4874883;29;20131;-82
2022/04/12 02:41:59;;;;;;;12.18;6.15;;;4.70;99.90;;;;;;4876491;29;20144;-82
2022/04/12 02:44:25;;;;;;;11.50;6.85;;;4.60;99.90;;;;;;4875109;29;20116;-82
2022/04/12 02:46:50;;;;;;;9.52;5.82;;;4.60;99.90;;;;;;4860316;29;20072;-82
2022/04/12 02:49:16;;;;;;;11.77;6.10;;;4.60;99.90;;;;;;4859811;29;20056;-81
2022/04/12 02:51:51;;;;;;;11.27;6.20;;;4.90;99.90;;;;;;4875766;29;20140;-82
2022/04/12 02:54:17;;;;;;;10.95;6.47;;;5.20;99.90;;;;;;4860974;29;20045;-82
2022/04/12 02:56:43;;;;;;;12.07;6.43;;;5.20;99.90;;;;;;4867392;29;20188;-82
2022/04/12 02:59:09;;;;;;;10.38;6.05;;;4.80;99.90;;;;;;4880273;29;20088;-82
2022/04/12 03:01:35;;;;;;;8.98;6.20;;;4.30;99.90;;;;;;4867284;29;20135;-82
2022/04/12 03:04:01;;;;;;;12.77;6.90;;;4.50;99.90;;;;;;4866583;29;20131;-82
2022/04/12 03:06:26;;;;;;;10.77;6.53;;;4.80;99.90;;;;;;4881084;29;20045;-82
2022/04/12 03:08:52;;;;;;;11.32;6.43;;;4.30;99.90;;;;;;4898318;29;20048;-82
2022/04/12 03:11:24;;;;;;;11.77;6.88;;;4.30;99.90;;;;;;4881821;29;20053;-82
2022/04/12 03:13:49;;;;;;;15.10;7.35;;;4.60;99.90;;;;;;4865196;29;20049;-82
2022/04/12 03:16:15;;;;;;;12.05;7.03;;;4.70;99.90;;;;;;4866095;29;20055;-82
2022/04/12 03:18:41;;;;;;;11.65;6.40;;;4.90;99.90;;;;;;4867035;29;20040;-82
2022/04/12 03:21:06;;;;;;;10.93;6.75;;;5.90;99.90;;;;;;4881140;29;20044;-82
2022/04/12 03:23:32;;;;;;;12.05;6.97;;;4.50;99.90;;;;;;4881503;29;20051;-82
2022/04/12 03:25:58;;;;;;;12.43;7.20;;;4.20;99.90;;;;;;4866557;29;20485;-82
2022/04/12 03:28:24;;;;;;;11.82;6.88;;;4.40;99.90;;;;;;4865056;29;20044;-82
2022/04/12 03:30:49;;;;;;;14.80;7.03;;;4.60;99.90;;;;;;4865918;29;20611;-82
2022/04/12 03:33:15;;;;;;;14.30;7.45;;;4.40;99.90;;;;;;4897164;29;20048;-82
2022/04/12 03:35:42;;;;;;;11.05;7.05;;;4.00;99.90;;;;;;4865708;29;20104;-81
2022/04/12 03:38:13;;;;;;;9.88;7.25;;;4.20;99.90;;;;;;4881968;29;20128;-82
2022/04/12 03:40:39;;;;;;;16.38;7.82;;;4.10;99.90;;;;;;4881698;29;20044;-82
2022/04/12 03:43:05;;;;;;;17.38;8.20;;;4.70;99.90;;;;;;4881157;29;20047;-82
2022/04/12 03:45:31;;;;;;;13.23;7.38;;;4.20;99.90;;;;;;4880863;29;20131;-82
2022/04/12 03:47:57;;;;;;;12.98;7.55;;;4.10;99.90;;;;;;4865866;29;20044;-82
2022/04/12 03:50:23;;;;;;;14.57;8.50;;;4.10;99.90;;;;;;4881239;29;20116;-82
2022/04/12 03:52:50;;;;;;;11.57;7.63;;;4.10;99.90;;;;;;4865895;29;20048;-82
2022/04/12 03:55:38;;;;;;;14.13;7.82;;;4.20;99.90;;;;;;4865123;29;20091;-81
2022/04/12 03:58:06;;;;;;;14.10;9.05;;;4.20;99.90;;;;;;4866567;29;20392;-82
2022/04/12 04:00:33;;;;;;;11.57;7.60;;;4.20;99.90;;;;;;4881063;29;20135;-82
2022/04/12 04:03:11;;;;;;;15.63;7.93;;;4.20;99.90;;;;;;4881458;29;20056;-82
2022/04/12 04:05:37;;;;;;;11.20;8.18;;;4.10;99.90;;;;;;4881542;29;20044;-82
2022/04/12 04:08:02;;;;;;;14.93;8.52;;;4.10;99.90;;;;;;4893968;29;20050;-82
2022/04/12 04:10:28;;;;;;;13.07;8.88;;;4.10;99.90;;;;;;4878161;29;20491;-82
2022/04/12 04:12:54;;;;;;;13.00;8.48;;;4.20;99.90;;;;;;4878940;29;20528;-82
2022/04/12 04:15:19;;;;;;;14.20;8.52;;;4.10;99.90;;;;;;4876764;29;20052;-82
2022/04/12 04:17:46;;;;;;;14.07;8.63;;;4.90;99.90;;;;;;4877745;29;20057;-82
2022/04/12 04:20:15;;;;;;;11.88;8.68;;;4.10;99.90;;;;;;4892522;29;20045;-82
2022/04/12 04:22:41;;;;;;;14.23;8.57;;;4.20;99.90;;;;;;4878923;29;20109;-81
2022/04/12 04:25:09;;;;;;;14.18;8.75;;;4.30;99.90;;;;;;4876343;29;20199;-84
2022/04/12 04:27:35;;;;;;;16.60;8.77;;;4.20;99.90;;;;;;4844991;29;20075;-82
2022/04/12 04:30:03;;;;;;;14.57;9.10;;;4.20;99.90;;;;;;4859507;29;20040;-82
2022/04/12 04:32:29;;;;;;;14.88;9.23;;;4.20;99.90;;;;;;4863869;29;20048;-82
2022/04/12 04:34:55;;;;;;;14.30;9.15;;;4.60;99.90;;;;;;4889337;29;20088;-82
2022/04/12 04:37:21;;;;;;;15.40;9.70;;;4.20;99.90;;;;;;4864675;29;20461;-82
2022/04/12 04:39:46;;;;;;;18.02;9.35;;;5.00;99.90;;;;;;4878753;29;20080;-82
2022/04/12 04:42:12;;;;;;;15.60;9.90;;;4.20;99.90;;;;;;4882578;29;20040;-82
2022/04/12 04:44:38;;;;;;;18.02;10.32;;;4.90;99.90;;;;;;4892591;29;20219;-82
2022/04/12 04:47:04;;;;;;;13.23;8.65;;;4.20;99.90;;;;;;4891999;29;20470;-82
2022/04/12 04:49:41;;;;;;;14.82;9.68;;;4.20;99.90;;;;;;4892472;29;20044;-82
2022/04/12 04:52:07;;;;;;;14.50;9.65;;;4.10;99.90;;;;;;4890941;29;20056;-82
2022/04/12 04:54:34;;;;;;;15.13;9.52;;;4.70;99.90;;;;;;4877735;29;20504;-82
2022/04/12 04:56:59;;;;;;;17.75;10.00;;;4.50;99.90;;;;;;4894884;29;20049;-82
2022/04/12 04:59:25;;;;;;;14.88;9.18;;;4.20;99.90;;;;;;4860657;29;20449;-82
2022/04/12 05:01:51;;;;;;;16.20;9.32;;;4.40;99.90;;;;;;4878286;29;20053;-82
2022/04/12 05:04:16;;;;;;;14.98;9.57;;;4.10;99.90;;;;;;4860206;29;20049;-82
2022/04/12 05:06:42;;;;;;;13.98;9.02;;;4.80;99.90;;;;;;4843632;29;20041;-82
2022/04/12 05:09:07;;;;;;;16.10;9.55;;;4.40;99.90;;;;;;4843387;29;20097;-82
2022/04/12 05:11:33;;;;;;;18.33;10.45;;;4.10;99.90;;;;;;4875962;29;20044;-82
2022/04/12 05:13:59;;;;;;;14.27;8.98;;;4.10;99.90;;;;;;4857732;29;20501;-81
2022/04/12 05:16:24;;;;;;;14.52;9.43;;;4.10;99.90;;;;;;4874767;29;20109;-81
2022/04/12 05:18:51;;;;;;;15.18;9.48;;;4.70;99.90;;;;;;4857762;29;20120;-81
2022/04/12 05:21:18;;;;;;;15.32;9.95;;;4.10;99.90;;;;;;4842909;29;20048;-81
2022/04/12 05:23:44;;;;;;;17.65;9.80;;;4.50;99.90;;;;;;4858880;29;20051;-81
2022/04/12 05:26:10;;;;;;;16.30;9.43;;;4.10;99.90;;;;;;4858815;29;20109;-82
2022/04/12 05:28:35;;;;;;;18.02;9.18;;;4.60;99.90;;;;;;4843022;29;20404;-81
2022/04/12 05:31:01;;;;;;;13.75;10.00;;;4.20;99.90;;;;;;4873429;29;20128;-81
2022/04/12 05:33:27;;;;;;;15.02;9.48;;;4.20;99.90;;;;;;4858297;29;20352;-82
2022/04/12 05:35:52;;;;;;;12.38;9.32;;;4.30;99.90;;;;;;4858868;29;20052;-81
2022/04/12 05:38:18;;;;;;;16.83;10.60;;;4.40;99.90;;;;;;4880863;29;20151;-81
2022/04/12 05:40:45;;;;;;;18.77;9.90;;;4.50;99.90;;;;;;4867339;29;20041;-82
2022/04/12 05:43:10;;;;;;;15.25;9.55;;;4.90;99.90;;;;;;4883532;29;20421;-81
2022/04/12 05:45:36;;;;;;;15.82;9.50;;;4.70;99.90;;;;;;4883157;29;20040;-82
2022/04/12 05:48:02;;;;;;;18.20;10.10;;;4.90;99.90;;;;;;4882687;29;20048;-81
2022/04/12 05:50:28;;;;;;;14.63;9.80;;;5.10;99.90;;;;;;4892524;29;20048;-82
2022/04/12 05:52:59;;;;;;;14.15;8.82;;;5.20;99.90;;;;;;4881986;29;20040;-81
2022/04/12 05:55:26;;;;;;;14.57;9.45;;;5.40;99.90;;;;;;4882806;29;20136;-82
2022/04/12 05:57:56;;;;;;;16.67;9.02;;;6.40;99.90;;;;;;4883403;29;20481;-82
2022/04/12 06:00:23;;;;;;;17.35;9.13;;;5.70;99.90;;;;;;4882372;29;20394;-82
2022/04/12 06:02:50;;;;;;;15.38;8.98;;;5.90;99.90;;;;;;4882913;29;20044;-81
2022/04/12 06:05:17;;;;;;;14.02;9.13;;;6.00;99.90;;;;;;4878470;29;20045;-82
2022/04/12 06:07:42;;;;;;;14.23;8.75;;;6.00;99.90;;;;;;4868170;29;20055;-82
2022/04/12 06:10:11;;;;;;;13.57;8.65;;;6.10;99.90;;;;;;4881751;29;20045;-82
2022/04/12 06:12:38;;;;;;;12.48;8.82;;;6.30;99.90;;;;;;4878918;29;20044;-82
2022/04/12 06:15:05;;;;;;;12.50;8.70;;;6.20;99.90;;;;;;4881803;29;20044;-82
2022/04/12 06:17:32;;;;;;;13.98;9.52;;;6.20;99.90;;;;;;4882391;29;20048;-82
2022/04/12 06:20:01;;;;;;;14.32;9.00;;;6.90;99.90;;;;;;4882911;29;20087;-82
2022/04/12 06:22:29;;;;;;;15.98;9.23;;;6.70;99.90;;;;;;4868073;29;20051;-82
2022/04/12 06:24:55;;;;;;;13.10;8.55;;;6.30;99.90;;;;;;4879298;29;20044;-82
2022/04/12 06:27:29;;;;;;;17.58;9.10;;;6.40;99.90;;;;;;4882259;29;20040;-82
2022/04/12 06:29:55;;;;;;;14.45;8.50;;;6.40;99.90;;;;;;4863184;29;20127;-82
2022/04/12 06:32:21;;;;;;;16.67;8.80;;;7.30;99.90;;;;;;4867340;29;20131;-82
2022/04/12 06:34:46;;;;;;;14.00;9.00;;;6.90;99.90;;;;;;4867184;29;20043;-81
2022/04/12 06:37:12;;;;;;;12.77;8.70;;;7.00;99.90;;;;;;4866460;29;20048;-81
2022/04/12 06:39:38;;;;;;;14.52;9.48;;;7.50;99.90;;;;;;4883404;29;20056;-82
2022/04/12 06:42:04;;;;;;;14.35;8.65;;;6.80;99.90;;;;;;4882897;29;20064;-82
2022/04/12 06:44:32;;;;;;;14.77;8.98;;;6.90;99.90;;;;;;4881655;29;20036;-82
2022/04/12 06:47:00;;;;;;;14.27;8.90;;;6.90;99.90;;;;;;4867683;29;20048;-82
2022/04/12 06:49:38;;;;;;;15.60;8.65;;;7.10;99.90;;;;;;4863307;29;20049;-82
2022/04/12 06:52:07;;;;;;;17.98;9.50;;;7.20;99.90;;;;;;4848274;29;20113;-82
2022/04/12 06:54:33;;;;;;;12.43;8.93;;;7.50;99.90;;;;;;4864213;29;20573;-82
2022/04/12 06:56:58;;;;;;;15.93;9.55;;;8.30;99.90;;;;;;4864062;29;20136;-82
2022/04/12 06:59:25;;;;;;;13.57;8.60;;;7.40;99.90;;;;;;4858083;29;20049;-82
2022/04/12 07:01:51;;;;;;;12.55;8.38;;;8.20;99.90;;;;;;4857058;29;20409;-82
2022/04/12 07:04:16;;;;;;;15.07;9.23;;;8.50;99.90;;;;;;4838216;29;20064;-82
2022/04/12 07:06:42;;;;;;;15.45;8.90;;;8.00;99.90;;;;;;4838930;29;20566;-82
2022/04/12 07:09:10;;;;;;;17.48;8.82;;;7.70;99.90;;;;;;4854828;29;20672;-82
2022/04/12 07:11:35;;;;;;;14.68;8.65;;;7.70;99.90;;;;;;4838891;29;20518;-82
2022/04/12 07:14:01;;;;;;;14.07;8.93;;;7.80;99.90;;;;;;4821174;29;20064;-82
2022/04/12 07:16:27;;;;;;;14.55;9.15;;;8.80;99.90;;;;;;4838689;29;20041;-82
2022/04/12 07:18:52;;;;;;;13.68;8.75;;;8.30;99.90;;;;;;4838639;29;20061;-82
2022/04/12 07:21:24;;;;;;;13.25;8.65;;;7.90;99.90;;;;;;4837947;29;20460;-82
2022/04/12 07:23:50;;;;;;;13.60;8.45;;;8.40;99.90;;;;;;4838556;29;20081;-82
2022/04/12 07:26:16;;;;;;;15.15;9.05;;;8.30;99.90;;;;;;4837705;29;20788;-82
2022/04/12 07:28:42;;;;;;;15.05;9.52;;;8.10;99.90;;;;;;4853003;29;20056;-82
2022/04/12 07:31:08;;;;;;;17.08;9.77;;;8.10;99.90;;;;;;4853251;29;20521;-82
2022/04/12 07:33:33;;;;;;;14.63;9.18;;;8.10;99.90;;;;;;4854463;29;20052;-82
2022/04/12 07:36:08;;;;;;;15.93;9.45;;;9.10;99.90;;;;;;4839457;29;20561;-82
2022/04/12 07:38:34;;;;;;;13.48;9.48;;;8.40;99.90;;;;;;4854934;29;20087;-82
2022/04/12 07:41:00;;;;;;;14.18;9.35;;;8.50;99.90;;;;;;4838196;29;20049;-82
2022/04/12 07:43:25;;;;;;;15.43;9.43;;;9.00;99.90;;;;;;4842979;29;20051;-82
2022/04/12 07:45:51;;;;;;;14.10;9.55;;;9.70;99.90;;;;;;4857656;29;20068;-82
2022/04/12 07:48:16;;;;;;;14.38;9.27;;;8.80;99.90;;;;;;4858166;29;20184;-82
2022/04/12 07:50:52;;;;;;;14.30;9.23;;;8.80;99.90;;;;;;4876277;29;20087;-82
2022/04/12 07:53:17;;;;;;;12.75;8.93;;;8.90;99.90;;;;;;4876090;29;20053;-82
2022/04/12 07:55:43;;;;;;;28.10;9.35;;;9.90;99.90;;;;;;4860431;29;20132;-82
2022/04/12 07:58:09;;;;;;;17.67;8.57;;;9.10;99.90;;;;;;4889536;29;20052;-81
2022/04/12 08:00:34;;;;;;;13.23;8.75;;;9.80;99.90;;;;;;4891738;29;20055;-82
2022/04/12 08:03:07;;;;;;;15.02;9.73;;;9.20;99.90;;;;;;4890937;29;20054;-81
2022/04/12 08:05:35;;;;;;;12.23;8.68;;;9.30;99.90;;;;;;4892487;29;20123;-82
2022/04/12 08:08:02;;;;;;;16.42;9.32;;;9.40;99.90;;;;;;4886601;29;20051;-82
2022/04/12 08:10:27;;;;;;;12.77;8.77;;;9.60;99.90;;;;;;4880149;29;20052;-82
2022/04/12 08:12:54;;;;;;;14.20;9.25;;;9.60;99.90;;;;;;4882862;29;20055;-81
2022/04/12 08:15:20;;;;;;;12.90;8.85;;;9.70;99.90;;;;;;4874052;29;20056;-82
2022/04/12 08:17:46;;;;;;;17.50;9.32;;;9.80;99.90;;;;;;4876595;29;20045;-82
2022/04/12 08:20:13;;;;;;;12.82;8.55;;;9.90;99.90;;;;;;4892706;29;20104;-82
2022/04/12 08:22:40;;;;;;;15.38;9.02;;;10.70;99.90;;;;;;4861186;29;20442;-81
2022/04/12 08:25:08;;;;;;;13.10;8.48;;;10.00;99.90;;;;;;4875071;29;20051;-81
2022/04/12 08:27:34;;;;;;;17.48;8.40;;;10.10;99.90;;;;;;4842921;29;20409;-82
2022/04/12 08:30:00;;;;;;;12.23;8.23;;;10.20;99.90;;;;;;4840744;29;20048;-82
2022/04/12 08:32:26;;;;;;;14.93;8.75;;;10.30;99.90;;;;;;4857062;29;20145;-82
2022/04/12 08:34:53;;;;;;;16.08;9.45;;;10.40;99.90;;;;;;4857576;29;20469;-82
2022/04/12 08:37:19;;;;;;;14.43;8.13;;;10.70;99.90;;;;;;4840455;29;20144;-82
2022/04/12 08:39:46;;;;;;;15.20;8.13;;;10.60;99.90;;;;;;4841920;29;20132;-81
2022/04/12 08:42:11;;;;;;;13.93;8.45;;;10.80;99.90;;;;;;4840853;29;20052;-82
2022/04/12 08:44:39;;;;;;;11.32;8.40;;;11.20;99.90;;;;;;4855764;29;20057;-82
2022/04/12 08:47:07;;;;;;;13.30;8.77;;;11.80;99.90;;;;;;4856902;29;20105;-83
2022/04/12 08:49:35;;;;;;;11.45;7.82;;;11.70;99.90;;;;;;4853957;29;20061;-83
2022/04/12 08:52:02;;;;;;;11.93;9.02;;;11.30;99.90;;;;;;4852429;29;20053;-82
2022/04/12 08:54:28;;;;;;;13.57;9.20;;;11.40;99.90;;;;;;4853271;29;20058;-84
2022/04/12 08:56:54;;;;;;;14.02;8.70;;;11.50;99.90;;;;;;4838934;29;20057;-82
2022/04/12 08:59:20;;;;;;;12.30;7.57;;;12.00;99.90;;;;;;4836408;29;20053;-82
2022/04/12 09:01:46;;;;;;;14.20;8.50;;;11.70;99.90;;;;;;4854386;29;20048;-83
2022/04/12 09:04:12;;;;;;;14.25;8.77;;;11.60;99.90;;;;;;4852900;29;20045;-84
2022/04/12 09:06:51;;;;;;;13.40;8.55;;;12.20;99.90;;;;;;4881723;29;20434;-83
2022/04/12 09:09:19;;;;;;;11.68;8.32;;;11.80;99.90;;;;;;4892524;29;20089;-82
2022/04/12 09:11:58;;;;;;;14.27;8.32;;;12.20;99.90;;;;;;4893283;29;20052;-82
2022/04/12 09:14:25;;;;;;;11.38;8.18;;;12.10;99.90;;;;;;4874709;29;20111;-82
2022/04/12 09:16:52;;;;;;;12.18;8.68;;;12.00;99.90;;;;;;4849064;29;20162;-81
2022/04/12 09:19:37;;;;;;;13.63;9.00;;;12.10;99.90;;;;;;4857396;29;20041;-82
2022/04/12 09:22:14;;;;;;;15.45;9.00;;;12.30;99.90;;;;;;4875675;29;20049;-82
2022/04/12 09:24:45;;;;;;;15.48;8.77;;;12.20;99.90;;;;;;4859113;29;20049;-82
2022/04/12 09:27:13;;;;;;;12.63;8.75;;;12.90;99.90;;;;;;4857764;29;20052;-82
2022/04/12 09:29:44;;;;;;;15.32;9.23;;;12.50;99.90;;;;;;4873884;29;20056;-82
2022/04/12 09:32:13;;;;;;;13.50;8.65;;;12.60;99.90;;;;;;4858210;29;20088;-82
2022/04/12 09:34:40;;;;;;;15.02;8.13;;;12.70;99.90;;;;;;4889076;29;20072;-82
2022/04/12 09:37:17;;;;;;;14.00;8.48;;;13.30;99.90;;;;;;4873985;29;20048;-82
2022/04/12 09:39:54;;;;;;;16.10;8.50;;;12.90;99.90;;;;;;4858297;29;20045;-82
2022/04/12 09:42:48;;;;;;;15.43;8.70;;;13.00;99.90;;;;;;4858631;29;20049;-82
2022/04/12 09:45:23;;;;;;;15.57;8.73;;;13.20;99.90;;;;;;4856986;29;20266;-82
2022/04/12 09:47:50;;;;;;;14.40;8.32;;;13.30;99.90;;;;;;4858057;29;20095;-82
2022/04/12 09:50:18;;;;;;;14.13;8.82;;;13.40;99.90;;;;;;4857792;29;20057;-82
2022/04/12 09:52:55;;;;;;;12.00;8.73;;;13.50;99.90;;;;;;4863810;29;20080;-82
2022/04/12 09:55:36;;;;;;;12.80;8.57;;;14.20;99.90;;;;;;4854146;29;20133;-82
2022/04/12 09:58:05;;;;;;;12.05;8.18;;;13.70;99.90;;;;;;4855117;29;20048;-82
2022/04/12 10:00:31;;;;;;;14.10;8.38;;;13.80;99.90;;;;;;4854437;29;20401;-82
2022/04/12 10:03:01;;;;;;;13.73;8.18;;;13.90;99.90;;;;;;4854592;29;20053;-83
2022/04/12 10:05:28;;;;;;;14.55;7.95;;;14.00;99.90;;;;;;4854286;29;20057;-83
2022/04/12 10:07:58;;;;;;;11.25;8.10;;;14.10;99.90;;;;;;4854798;29;20524;-83
2022/04/12 10:10:25;;;;;;;13.35;8.20;;;14.70;99.90;;;;;;4838901;29;20053;-83
2022/04/12 10:12:53;;;;;;;11.32;8.40;;;14.20;99.90;;;;;;4855374;29;20570;-83
2022/04/12 10:15:20;;;;;;;13.15;9.32;;;14.20;99.90;;;;;;4838122;29;20413;-83
2022/04/12 10:17:46;;;;;;;14.02;8.63;;;14.30;99.90;;;;;;4855725;29;20049;-84
2022/04/12 10:20:15;;;;;;;14.23;8.30;;;14.60;99.90;;;;;;4839250;29;20092;-84
2022/04/12 10:22:41;;;;;;;11.52;8.50;;;14.60;99.90;;;;;;4839400;29;20439;-83
2022/04/12 10:25:09;;;;;;;14.52;7.82;;;14.80;99.90;;;;;;4839834;29;20506;-83
2022/04/12 10:27:37;;;;;;;14.25;8.45;;;14.60;99.90;;;;;;4839580;29;20136;-83
2022/04/12 10:30:26;;;;;;;10.95;7.57;;;14.80;99.90;;;;;;4853613;29;20406;-83
2022/04/12 10:32:59;;;;;;;13.50;8.65;;;14.90;99.90;;;;;;4855004;29;20126;-83
2022/04/12 10:35:44;;;;;;;13.70;7.78;;;15.10;99.90;;;;;;4840302;29;20572;-83
2022/04/12 10:38:13;;;;;;;12.32;8.32;;;15.20;99.90;;;;;;4838326;29;20049;-83
2022/04/12 10:40:44;;;;;;;11.90;7.97;;;15.30;99.90;;;;;;4854633;29;20055;-83
2022/04/12 10:43:11;;;;;;;14.73;8.20;;;15.30;99.90;;;;;;4838319;29;20037;-83
2022/04/12 10:45:46;;;;;;;13.40;8.10;;;15.50;99.90;;;;;;4853565;29;20049;-83
2022/04/12 10:48:24;;;;;;;16.23;8.50;;;15.50;99.90;;;;;;4839716;29;20085;-83
2022/04/12 10:50:57;;;;;;;13.93;7.82;;;15.70;99.90;;;;;;4841783;29;20052;-84
2022/04/12 10:53:35;;;;;;;;;;;15.80;99.90;;;;;;4857731;29;20504;-83
2022/04/12 10:56:04;;;;;;;12.75;7.45;;;15.80;99.90;;;;;;4857111;29;19924;-83
2022/04/12 10:58:31;;;;;;;13.80;8.52;;;15.90;99.90;;;;;;4857369;29;20470;-84
2022/04/12 11:00:57;;;;;;;12.98;8.65;;;16.10;99.90;;;;;;4856531;29;20087;-84
2022/04/12 11:03:52;;;;;;;11.35;8.32;;;16.10;99.90;;;;;;4857561;29;20080;-84
2022/04/12 11:06:23;;;;;;;10.73;7.40;;;16.20;99.90;;;;;;4856505;29;20487;-83
2022/04/12 11:08:51;;;;;;;13.75;7.95;;;16.30;99.90;;;;;;4842176;29;20057;-83
2022/04/12 11:11:19;;;;;;;11.52;7.55;;;16.40;99.90;;;;;;4841355;29;20041;-84
2022/04/12 11:13:45;;;;;;;12.65;7.90;;;16.50;99.90;;;;;;4842101;29;20044;-84
2022/04/12 11:16:12;;;;;;;12.63;8.25;;;16.60;99.90;;;;;;4857237;29;20067;-83
2022/04/12 11:18:59;;;;;;;12.15;8.25;;;16.70;99.90;;;;;;4864299;29;20514;-84
2022/04/12 11:21:46;;;;;;;12.05;8.20;;;16.80;99.90;;;;;;4879698;29;20116;-84
2022/04/12 11:24:15;;;;;;;15.20;8.45;;;17.10;99.90;;;;;;4863484;29;20048;-84
2022/04/12 11:26:45;;;;;;;13.32;7.97;;;16.90;99.90;;;;;;4879329;29;20151;-83
2022/04/12 11:29:26;;;;;;;14.18;7.60;;;17.00;99.90;;;;;;4878701;29;20135;-84
2022/04/12 11:31:54;;;;;;;12.85;8.60;;;17.00;99.90;;;;;;4880073;29;20392;-84
2022/04/12 11:34:21;;;;;;;16.67;8.35;;;17.10;99.90;;;;;;4878383;29;20095;-84
2022/04/12 11:37:07;;;;;;;14.98;8.35;;;17.20;99.90;;;;;;4879928;29;20136;-84
2022/04/12 11:39:39;;;;;;;13.65;8.38;;;17.20;99.90;;;;;;4863184;29;20044;-84
2022/04/12 11:42:08;;;;;;;14.07;8.75;;;17.30;99.90;;;;;;4863851;29;20063;-84
2022/04/12 11:44:34;;;;;;;20.83;8.65;;;17.30;99.90;;;;;;4878515;29;20061;-84
2022/04/12 11:47:02;;;;;;;14.02;8.55;;;17.40;99.90;;;;;;4878357;29;20053;-84
2022/04/12 11:49:30;;;;;;;12.07;8.98;;;17.50;99.90;;;;;;4860383;29;20273;-84
2022/04/12 11:51:59;;;;;;;13.32;8.27;;;17.50;99.90;;;;;;4876228;29;20076;-84
2022/04/12 11:54:31;;;;;;;16.45;8.68;;;17.90;99.90;;;;;;4859699;29;20053;-84
2022/04/12 11:57:00;;;;;;;14.20;8.70;;;17.70;99.90;;;;;;4860792;29;20052;-86
2022/04/12 11:59:27;;;;;;;16.20;8.55;;;17.70;99.90;;;;;;4859656;29;20121;-85
2022/04/12 12:01:59;;;;;;;12.80;7.78;;;17.80;99.90;;;;;;4860275;29;20049;-86
2022/04/12 12:04:29;;;;;;;13.50;8.93;;;17.80;99.90;;;;;;4880014;29;20629;-85
2022/04/12 12:06:59;;;;;;;10.95;7.65;;;18.20;99.90;;;;;;4865368;29;20041;-86
2022/04/12 12:09:25;;;;;;;13.55;8.20;;;17.90;99.90;;;;;;4859501;29;20507;-85
2022/04/12 12:11:50;;;;;;;13.13;7.90;;;18.00;99.90;;;;;;4859267;29;20205;-84
2022/04/12 12:14:27;;;;;;;17.42;8.52;;;18.10;99.90;;;;;;4889074;29;20100;-85
2022/04/12 12:17:09;;;;;;;14.30;7.28;;;18.10;99.90;;;;;;4876119;29;20041;-85
2022/04/12 12:19:38;;;;;;;14.73;8.10;;;18.10;99.90;;;;;;4859832;29;20060;-85
2022/04/12 12:22:07;;;;;;;12.80;7.75;;;18.10;99.90;;;;;;4890215;29;20072;-88
2022/04/12 12:24:37;;;;;;;13.02;8.07;;;18.10;99.90;;;;;;4875920;29;20045;-87
2022/04/12 12:27:04;;;;;;;16.63;8.25;;;18.20;99.90;;;;;;4858983;29;20052;-88
2022/04/12 12:29:36;;;;;;;13.30;7.82;;;18.20;99.90;;;;;;4858971;29;20109;-87
2022/04/12 12:32:02;;;;;;;14.07;7.70;;;18.20;99.90;;;;;;4875295;29;20423;-87
2022/04/12 12:34:30;;;;;;;14.88;8.02;;;18.30;99.90;;;;;;4859516;29;20053;-87
2022/04/12 12:37:08;;;;;;;11.57;8.02;;;18.30;99.90;;;;;;4873250;29;20074;-88
2022/04/12 12:39:48;;;;;;;12.52;8.35;;;18.30;99.90;;;;;;4859265;29;20137;-86
2022/04/12 12:42:14;;;;;;;13.18;8.45;;;18.30;99.90;;;;;;4859570;29;20131;-87
2022/04/12 12:44:40;;;;;;;15.32;7.90;;;18.40;99.90;;;;;;4858907;29;20484;-88
2022/04/12 12:47:06;;;;;;;14.00;8.73;;;18.40;99.90;;;;;;4875427;29;20450;-87
2022/04/12 12:49:44;;;;;;;14.20;7.63;;;18.50;99.90;;;;;;4858611;29;20496;-87
2022/04/12 12:52:13;;;;;;;12.65;8.45;;;18.50;99.90;;;;;;4874347;29;20092;-85
2022/04/12 12:54:39;;;;;;;18.05;8.68;;;18.50;99.90;;;;;;4859810;29;20109;-87